map of BQS home
BQS - Airport
Location
City:  Blagoveshchensk, Amurskaya, Russian Federation (Russia)
Name:Ignatyevo Airport
ICAO:UHBB
IATA:BQS

Details
Type:Airport (Aerodrome, Airfield)
Use:Public/Civil, International (customs port of entry)
Latitude:5025'32"N (50.425556)
Longitude:12724'45"E (127.412500)
Elevation:640 ft (195 m)
Variation:12.44W (WMM2015v2 magnetic declination)
-0.08 annual change
Runways:1
Longest:9186 × 148 ft (2800 × 45 m), paved

Time
Time Zone:UTC+9 (DST+10)

Weather
METAR:UHBB 041400Z 34002MPS CAVOK M30/M37 Q1015 R36/820250 NOSIG RMK QFE744/0992
TAF:UHBB 041340Z 0415/0515 27003MPS CAVOK= TAF UHSS 041400Z 0415/0521 33010G15MPS 1400 SHSN BLSN BKN008 BKN023CB OVC100
TEMPO 0415/0501 0700 +SHSN BLSN BKN004 BKN017CB
FM050100 29006G11MPS 9999 BKN025CB
TEMPO 0501/0509 1400 SHSN BLSN BKN007 BKN025CB
BECMG 0509/0511 30003MPS
TEMPO 0509/0521 1400 SHSN BKN006 BKN020CB

Related Locations
Nearby:
Farthest:PSY: 12195 mi / 19626 km
Stanley (Port Stanley) [Port Stanley], FK

Find:

   beyond  
but within

Other Information
Maps:
NOTAMs:
Links:
Sources:

  
  • flag of Russian Federation (Russia)
  • flag of Amurskaya
  

Airport Diagram

Airport diagram for BQS

Airport diagram PDF from AIP of the Russian Federation

Sectional Chart

Flight Planning
at skyvector.com

Satellite Image

Google Maps Satellite view

Yandex Maps Satellite view


 

Copyright © 2004-2019 Karl L. Swartz. All rights reserved.
The Great Circle Mapper name and logo are trademarks of the Great Circle Mapper.
All other trademarks mentioned herein belong to their respective owners.
Please see credits for attibutions and further copyright information.

  Follow gcmap on Facebook Follow gcmap on Twitter GCmap on LinkedIn

hCard Microformat

Geo Microformat